createdAt,value
2018-01-26T00:00:07.431Z,39.13
2018-01-26T00:02:35.787Z,31.80
2018-01-26T00:05:04.193Z,27.40
2018-01-26T00:07:32.424Z,23.13
2018-01-26T00:10:00.671Z,23.90
2018-01-26T00:12:28.956Z,37.20
2018-01-26T00:14:57.197Z,24.13
2018-01-26T00:17:26.265Z,35.13
2018-01-26T00:19:54.566Z,26.40
2018-01-26T00:22:22.820Z,25.03
2018-01-26T00:24:51.061Z,34.60
2018-01-26T00:27:19.373Z,38.07
2018-01-26T00:29:47.741Z,31.37
2018-01-26T00:32:15.976Z,36.20
2018-01-26T00:34:44.239Z,29.47
2018-01-26T00:37:12.491Z,26.10
2018-01-26T00:39:40.877Z,26.57
2018-01-26T00:42:09.106Z,28.87
2018-01-26T00:44:37.382Z,27.40
2018-01-26T00:47:05.749Z,25.10
2018-01-26T00:49:34.821Z,35.00
2018-01-26T00:52:03.069Z,31.17
2018-01-26T00:54:32.098Z,25.77
2018-01-26T00:57:00.331Z,28.00
2018-01-26T00:59:28.613Z,39.20
2018-01-26T01:01:56.834Z,43.90
2018-01-26T01:04:25.068Z,33.53
2018-01-26T01:06:53.348Z,26.50
2018-01-26T01:09:21.585Z,28.27
2018-01-26T01:11:49.836Z,49.13
2018-01-26T01:14:18.277Z,52.37
2018-01-26T01:16:46.543Z,40.80
2018-01-26T01:19:14.775Z,46.87
2018-01-26T01:21:43.071Z,35.07
2018-01-26T01:24:11.302Z,29.73
2018-01-26T01:26:39.548Z,41.10
2018-01-26T01:29:07.850Z,34.23
2018-01-26T01:31:36.877Z,40.47
2018-01-26T01:34:05.878Z,34.93
2018-01-26T01:36:34.111Z,39.03
2018-01-26T01:39:02.428Z,25.57
2018-01-26T01:41:30.662Z,27.70
2018-01-26T01:43:58.944Z,27.33
2018-01-26T01:46:27.212Z,42.20
2018-01-26T01:49:14.001Z,38.37
2018-01-26T01:51:43.057Z,31.33
2018-01-26T01:54:11.283Z,29.93
2018-01-26T01:56:40.280Z,36.23
2018-01-26T01:59:09.405Z,35.57
2018-01-26T02:01:37.649Z,32.70
2018-01-26T02:04:06.756Z,33.20
2018-01-26T02:06:35.031Z,44.43
2018-01-26T02:09:03.276Z,33.43
2018-01-26T02:11:31.593Z,54.00
2018-01-26T02:13:59.890Z,33.80
2018-01-26T02:16:28.109Z,38.77
2018-01-26T02:18:56.407Z,48.90
2018-01-26T02:21:24.662Z,32.97
2018-01-26T02:23:52.914Z,33.10
2018-01-26T02:26:21.217Z,61.83
2018-01-26T02:28:49.521Z,50.93
2018-01-26T02:31:17.783Z,49.10
2018-01-26T02:33:46.072Z,33.70
2018-01-26T02:36:14.301Z,46.70
2018-01-26T02:38:42.597Z,42.77
2018-01-26T02:41:11.736Z,44.80
2018-01-26T02:43:39.997Z,51.77
2018-01-26T02:46:08.246Z,48.77
2018-01-26T02:48:37.283Z,35.47
2018-01-26T02:51:05.525Z,37.80
2018-01-26T02:53:33.811Z,34.90
2018-01-26T02:56:02.066Z,32.50
2018-01-26T02:58:31.062Z,33.60
2018-01-26T03:01:00.241Z,31.53
2018-01-26T03:03:28.482Z,31.57
2018-01-26T03:05:56.734Z,31.83
2018-01-26T03:08:25.012Z,28.17
2018-01-26T03:10:53.284Z,28.13
2018-01-26T03:13:21.550Z,27.87
2018-01-26T03:15:49.813Z,27.07
2018-01-26T03:18:18.122Z,30.70
2018-01-26T03:20:46.385Z,27.70
2018-01-26T03:23:14.635Z,28.20
2018-01-26T03:25:43.718Z,28.63
2018-01-26T03:28:11.951Z,26.90
2018-01-26T03:30:40.179Z,22.67
2018-01-26T03:33:09.212Z,27.80
2018-01-26T03:35:37.445Z,31.23
2018-01-26T03:38:06.542Z,22.23
2018-01-26T03:40:34.818Z,27.37
2018-01-26T03:43:03.815Z,26.93
2018-01-26T03:45:32.870Z,27.47
2018-01-26T03:48:01.111Z,30.17
2018-01-26T03:50:29.338Z,25.80
2018-01-26T03:52:57.625Z,25.20
2018-01-26T03:55:25.871Z,23.53
2018-01-26T03:57:54.139Z,27.77
2018-01-26T04:00:22.355Z,21.53
2018-01-26T04:02:51.353Z,27.40
2018-01-26T04:05:19.617Z,30.80
2018-01-26T04:07:47.845Z,28.27
2018-01-26T04:10:16.222Z,20.70
2018-01-26T04:12:44.467Z,32.93
2018-01-26T04:15:12.775Z,24.37
2018-01-26T04:17:41.035Z,21.67
2018-01-26T04:20:09.317Z,26.40
2018-01-26T04:22:37.705Z,27.00
2018-01-26T04:25:05.965Z,37.10
2018-01-26T04:27:34.214Z,32.37
2018-01-26T04:30:02.550Z,21.23
2018-01-26T04:32:30.831Z,25.20
2018-01-26T04:34:59.168Z,26.80
2018-01-26T04:37:27.502Z,44.27
2018-01-26T04:39:55.750Z,47.80
2018-01-26T04:42:24.004Z,21.40
2018-01-26T04:44:52.299Z,16.20
2018-01-26T04:47:24.081Z,32.07
2018-01-26T04:49:52.332Z,22.50
2018-01-26T04:52:20.571Z,27.47
2018-01-26T04:54:48.882Z,24.73
2018-01-26T04:57:17.106Z,28.10
2018-01-26T04:59:46.107Z,19.10
2018-01-26T05:02:15.137Z,30.37
2018-01-26T05:04:43.392Z,32.10
2018-01-26T05:07:11.634Z,29.10
2018-01-26T05:09:39.958Z,20.63
2018-01-26T05:12:08.199Z,24.90
2018-01-26T05:14:37.181Z,19.97
2018-01-26T05:17:06.310Z,33.87
2018-01-26T05:19:34.559Z,33.30
2018-01-26T05:22:03.568Z,31.10
2018-01-26T05:24:31.877Z,23.50
2018-01-26T05:27:00.125Z,18.30
2018-01-26T05:29:28.386Z,23.40
2018-01-26T05:31:56.649Z,22.97
2018-01-26T05:34:24.941Z,26.60
2018-01-26T05:36:53.156Z,27.80
2018-01-26T05:39:21.402Z,21.57
2018-01-26T05:41:49.667Z,23.90
2018-01-26T05:44:18.658Z,18.70
2018-01-26T05:46:46.908Z,20.03
2018-01-26T05:49:16.046Z,31.20
2018-01-26T05:51:44.334Z,26.83
2018-01-26T05:54:12.577Z,25.87
2018-01-26T05:56:40.837Z,22.10
2018-01-26T05:59:09.865Z,39.00
2018-01-26T06:01:38.157Z,31.03
2018-01-26T06:04:06.435Z,29.57
2018-01-26T06:06:34.737Z,26.37
2018-01-26T06:09:02.999Z,22.63
2018-01-26T06:11:31.238Z,23.63
2018-01-26T06:13:59.481Z,27.77
2018-01-26T06:16:28.553Z,19.87
2018-01-26T06:18:56.820Z,32.93
2018-01-26T06:21:25.102Z,21.90
2018-01-26T06:23:53.375Z,22.70
2018-01-26T06:26:21.634Z,20.47
2018-01-26T06:28:49.882Z,22.13
2018-01-26T06:31:18.202Z,36.60
2018-01-26T06:33:46.509Z,33.43
2018-01-26T06:36:14.820Z,35.93
2018-01-26T06:38:43.093Z,35.53
2018-01-26T06:41:11.335Z,20.90
2018-01-26T06:43:40.349Z,25.40
2018-01-26T06:46:08.802Z,18.67
2018-01-26T06:48:37.059Z,23.43
2018-01-26T06:51:05.346Z,22.10
2018-01-26T06:53:33.632Z,51.60
2018-01-26T06:56:01.898Z,21.20
2018-01-26T06:58:30.136Z,21.77
2018-01-26T07:00:58.458Z,25.97
2018-01-26T07:03:26.709Z,28.50
2018-01-26T07:05:54.981Z,22.87
2018-01-26T07:08:23.348Z,22.23
2018-01-26T07:10:51.652Z,23.53
2018-01-26T07:13:19.909Z,20.60
2018-01-26T07:15:48.190Z,23.80
2018-01-26T07:18:16.459Z,18.40
2018-01-26T07:20:44.738Z,30.30
2018-01-26T07:23:13.185Z,24.27
2018-01-26T07:25:41.528Z,26.53
2018-01-26T07:28:09.836Z,35.30
2018-01-26T07:30:38.118Z,48.67
2018-01-26T07:33:06.398Z,54.80
2018-01-26T07:35:34.642Z,23.80
2018-01-26T07:38:03.762Z,28.40
2018-01-26T07:40:32.012Z,26.30
2018-01-26T07:43:01.052Z,28.30
2018-01-26T07:45:29.333Z,40.83
2018-01-26T07:47:57.618Z,27.67
2018-01-26T07:50:25.869Z,35.37
2018-01-26T07:52:54.279Z,25.90
2018-01-26T07:55:22.539Z,26.47
2018-01-26T07:57:50.840Z,41.60
2018-01-26T08:00:19.237Z,61.83
2018-01-26T08:02:48.269Z,27.13
2018-01-26T08:05:16.576Z,45.10
2018-01-26T08:07:44.877Z,32.20
2018-01-26T08:10:13.133Z,35.23
2018-01-26T08:12:41.986Z,35.20
2018-01-26T08:15:10.594Z,32.07
2018-01-26T08:17:38.918Z,31.53
2018-01-26T08:20:07.958Z,32.20
2018-01-26T08:22:36.296Z,31.30
2018-01-26T08:25:04.542Z,34.07
2018-01-26T08:27:32.853Z,54.33
2018-01-26T08:30:01.246Z,32.23
2018-01-26T08:32:29.486Z,33.47
2018-01-26T08:34:58.513Z,33.77
2018-01-26T08:37:26.793Z,50.40
2018-01-26T08:39:55.023Z,41.13
2018-01-26T08:42:24.036Z,34.27
2018-01-26T08:44:53.080Z,39.30
2018-01-26T08:47:21.327Z,33.27
2018-01-26T08:49:49.560Z,38.10
2018-01-26T08:52:17.866Z,34.30
2018-01-26T08:54:46.100Z,37.57
2018-01-26T08:57:14.334Z,45.50
2018-01-26T08:59:42.612Z,42.47
2018-01-26T09:02:10.881Z,36.17
2018-01-26T09:04:39.165Z,44.77
2018-01-26T09:07:08.214Z,42.33
2018-01-26T09:09:37.231Z,45.27
2018-01-26T09:12:05.519Z,48.70
2018-01-26T09:14:33.797Z,33.53
2018-01-26T09:17:02.047Z,44.90
2018-01-26T09:19:30.296Z,32.67
2018-01-26T09:21:58.585Z,36.60
2018-01-26T09:24:27.601Z,31.80
2018-01-26T09:26:55.858Z,33.87
2018-01-26T09:29:24.163Z,45.13
2018-01-26T09:31:52.456Z,30.90
2018-01-26T09:34:20.697Z,34.53
2018-01-26T09:36:49.084Z,46.03
2018-01-26T09:39:17.318Z,37.37
2018-01-26T09:41:45.578Z,36.97
2018-01-26T09:44:13.876Z,42.30
2018-01-26T09:46:42.309Z,29.53
2018-01-26T09:49:11.386Z,48.23
2018-01-26T09:51:39.654Z,45.67
2018-01-26T09:54:07.932Z,38.80
2018-01-26T09:56:36.185Z,52.93
2018-01-26T09:59:05.224Z,28.07
2018-01-26T10:01:33.484Z,50.03
2018-01-26T10:04:01.734Z,51.73
2018-01-26T10:06:30.794Z,39.97
2018-01-26T10:08:59.038Z,34.80
2018-01-26T10:11:27.269Z,36.03
2018-01-26T10:13:55.541Z,38.17
2018-01-26T10:16:24.562Z,37.30
2018-01-26T10:18:52.835Z,29.50
2018-01-26T10:21:21.112Z,49.27
2018-01-26T10:23:49.353Z,49.80
2018-01-26T10:26:17.612Z,49.30
2018-01-26T10:28:45.889Z,50.47
2018-01-26T10:31:14.147Z,35.33
2018-01-26T10:33:42.390Z,34.57
2018-01-26T10:36:10.672Z,56.03
2018-01-26T10:38:38.929Z,42.53
2018-01-26T10:41:07.911Z,66.20
2018-01-26T10:43:36.977Z,50.00
2018-01-26T10:46:05.220Z,47.47
2018-01-26T10:48:33.467Z,51.60
2018-01-26T10:51:01.772Z,32.67
2018-01-26T10:53:30.012Z,35.70
2018-01-26T10:55:59.024Z,31.87
2018-01-26T10:58:27.293Z,51.13
2018-01-26T11:00:56.305Z,50.57
2018-01-26T11:03:24.554Z,33.33
2018-01-26T11:05:53.777Z,56.00
2018-01-26T11:08:22.060Z,32.80
2018-01-26T11:10:50.296Z,34.60
2018-01-26T11:13:19.358Z,39.23
2018-01-26T11:15:47.596Z,56.63
2018-01-26T11:18:15.877Z,50.67
2018-01-26T11:20:44.950Z,48.97
2018-01-26T11:23:13.172Z,49.57
2018-01-26T11:25:41.401Z,59.43
2018-01-26T11:28:09.687Z,47.03
2018-01-26T11:30:37.914Z,44.50
2018-01-26T11:33:06.141Z,39.53
2018-01-26T11:35:34.445Z,53.03
2018-01-26T11:38:02.672Z,42.67
2018-01-26T11:40:30.968Z,43.57
2018-01-26T11:42:59.245Z,41.37
2018-01-26T11:45:27.485Z,39.30
2018-01-26T11:47:56.492Z,34.93
2018-01-26T11:50:24.779Z,34.20
2018-01-26T11:52:53.027Z,39.47
2018-01-26T11:55:22.040Z,47.00
2018-01-26T11:57:50.666Z,47.60
2018-01-26T12:00:18.905Z,42.33
2018-01-26T12:02:47.158Z,44.20
2018-01-26T12:05:16.227Z,45.70
2018-01-26T12:07:44.463Z,51.10
2018-01-26T12:10:12.695Z,46.93
2018-01-26T12:12:41.028Z,45.27
2018-01-26T12:15:09.286Z,35.80
2018-01-26T12:17:37.700Z,45.60
2018-01-26T12:20:06.188Z,37.60
2018-01-26T12:22:35.271Z,30.47
2018-01-26T12:25:03.535Z,32.50
2018-01-26T12:27:31.843Z,35.57
2018-01-26T12:30:00.128Z,44.83
2018-01-26T12:32:28.406Z,42.07
2018-01-26T12:34:57.463Z,46.40
2018-01-26T12:37:25.714Z,51.20
2018-01-26T12:39:53.953Z,40.73
2018-01-26T12:42:23.027Z,78.27
2018-01-26T12:44:51.320Z,61.63
2018-01-26T12:47:19.579Z,43.77
2018-01-26T12:49:47.851Z,54.93
2018-01-26T12:52:16.089Z,43.13
2018-01-26T12:54:44.328Z,49.97
2018-01-26T12:57:13.408Z,44.37
2018-01-26T12:59:41.687Z,46.60
2018-01-26T13:02:09.933Z,48.13
2018-01-26T13:04:38.201Z,43.90
2018-01-26T13:07:06.440Z,44.50
2018-01-26T13:09:35.478Z,41.90
2018-01-26T13:12:03.769Z,37.00
2018-01-26T13:14:32.025Z,43.27
2018-01-26T13:17:00.297Z,59.13
2018-01-26T13:19:28.574Z,56.57
2018-01-26T13:21:56.802Z,46.57
2018-01-26T13:24:25.819Z,38.37
2018-01-26T13:26:54.134Z,37.33
2018-01-26T13:29:22.373Z,34.87
2018-01-26T13:31:50.674Z,37.83
2018-01-26T13:34:19.017Z,37.37
2018-01-26T13:36:47.307Z,49.70
2018-01-26T13:39:15.639Z,41.33
2018-01-26T13:41:44.681Z,44.23
2018-01-26T13:44:12.950Z,44.33
2018-01-26T13:46:41.952Z,44.83
2018-01-26T13:49:10.287Z,57.33
2018-01-26T13:51:39.308Z,39.37
2018-01-26T13:54:07.597Z,51.10
2018-01-26T13:56:35.943Z,38.93
2018-01-26T13:59:04.317Z,51.13
2018-01-26T14:01:33.392Z,53.37
2018-01-26T14:04:01.744Z,46.60
2018-01-26T14:06:29.998Z,60.53
2018-01-26T14:08:58.295Z,61.87
2018-01-26T14:11:26.643Z,65.30
2018-01-26T14:13:54.916Z,65.73
2018-01-26T14:16:23.195Z,62.70
2018-01-26T14:18:51.515Z,68.87
2018-01-26T14:21:19.751Z,65.67
2018-01-26T14:23:48.362Z,67.33
2018-01-26T14:26:16.714Z,51.67
2018-01-26T14:28:44.958Z,66.07
2018-01-26T14:31:13.297Z,67.23
2018-01-26T14:33:41.593Z,61.07
2018-01-26T14:36:10.613Z,63.70
2018-01-26T14:38:38.868Z,50.03
2018-01-26T14:41:07.909Z,42.90
2018-01-26T14:43:36.149Z,38.10
2018-01-26T14:46:05.135Z,44.40
2018-01-26T14:48:34.186Z,62.13
2018-01-26T14:51:02.483Z,53.03
2018-01-26T14:53:30.717Z,61.77
2018-01-26T14:55:59.027Z,60.50
2018-01-26T14:58:27.306Z,53.40
2018-01-26T15:00:55.550Z,63.03
2018-01-26T15:03:23.817Z,75.30
2018-01-26T15:05:52.104Z,89.37
2018-01-26T15:08:20.355Z,78.40
2018-01-26T15:10:48.616Z,70.90
2018-01-26T15:13:17.631Z,67.83
2018-01-26T15:15:45.896Z,68.00
2018-01-26T15:18:14.212Z,67.90
2018-01-26T15:20:42.463Z,43.33
2018-01-26T15:23:10.761Z,64.97
2018-01-26T15:25:39.474Z,73.07
2018-01-26T15:28:07.729Z,65.33
2018-01-26T15:30:35.990Z,60.77
2018-01-26T15:33:04.338Z,37.73
2018-01-26T15:35:33.334Z,59.17
2018-01-26T15:38:01.575Z,66.73
2018-01-26T15:40:29.898Z,58.67
2018-01-26T15:42:58.161Z,61.27
2018-01-26T15:45:26.413Z,36.27
2018-01-26T15:47:55.454Z,35.93
2018-01-26T15:50:23.692Z,34.50
2018-01-26T15:52:52.711Z,31.67
2018-01-26T15:55:20.989Z,36.90
2018-01-26T15:57:49.227Z,36.70
2018-01-26T16:00:17.462Z,37.17
2018-01-26T16:02:45.794Z,57.30
2018-01-26T16:05:14.791Z,48.33
2018-01-26T16:07:43.856Z,40.13
2018-01-26T16:10:12.146Z,34.87
2018-01-26T16:12:41.152Z,46.63
2018-01-26T16:15:09.401Z,31.83
2018-01-26T16:17:37.700Z,36.53
2018-01-26T16:20:06.695Z,36.03
2018-01-26T16:22:34.962Z,37.23
2018-01-26T16:25:03.249Z,64.27
2018-01-26T16:27:31.570Z,65.20
2018-01-26T16:29:59.917Z,68.60
2018-01-26T16:32:28.322Z,43.70
2018-01-26T16:34:56.564Z,49.37
2018-01-26T16:37:24.814Z,118.10
2018-01-26T16:39:53.862Z,79.03
2018-01-26T16:42:22.151Z,99.43
2018-01-26T16:44:50.379Z,121.73
2018-01-26T16:47:18.679Z,109.27
2018-01-26T16:49:46.928Z,81.03
2018-01-26T16:52:15.167Z,82.80
2018-01-26T16:54:44.247Z,100.77
2018-01-26T16:57:12.550Z,80.03
2018-01-26T16:59:40.827Z,77.20
2018-01-26T17:02:09.124Z,184.30
2018-01-26T17:04:37.379Z,89.07
2018-01-26T17:07:06.528Z,215.53
2018-01-26T17:09:34.793Z,192.93
2018-01-26T17:12:03.038Z,132.17
2018-01-26T17:14:31.371Z,83.13
2018-01-26T17:16:59.655Z,131.80
2018-01-26T17:19:27.992Z,130.70
2018-01-26T17:21:56.278Z,64.73
2018-01-26T17:24:24.531Z,141.17
2018-01-26T17:26:52.877Z,104.07
2018-01-26T17:29:21.165Z,61.77
2018-01-26T17:31:50.201Z,99.97
2018-01-26T17:34:18.547Z,81.97
2018-01-26T17:36:47.590Z,57.70
2018-01-26T17:39:15.828Z,76.13
2018-01-26T17:41:44.114Z,53.80
2018-01-26T17:44:12.355Z,85.97
2018-01-26T17:46:40.660Z,68.17
2018-01-26T17:49:09.010Z,83.27
2018-01-26T17:51:38.053Z,81.77
2018-01-26T17:54:06.400Z,61.60
2018-01-26T17:56:34.637Z,91.87
2018-01-26T17:59:02.890Z,131.17
2018-01-26T18:01:31.200Z,158.30
2018-01-26T18:03:59.449Z,151.03
2018-01-26T18:06:27.696Z,205.63
2018-01-26T18:08:56.095Z,61.43
2018-01-26T18:11:24.390Z,162.67
2018-01-26T18:13:52.718Z,168.33
2018-01-26T18:16:21.045Z,145.33
2018-01-26T18:18:49.349Z,156.73
2018-01-26T18:21:18.449Z,142.70
2018-01-26T18:23:46.694Z,157.47
2018-01-26T18:26:14.971Z,159.37
2018-01-26T18:28:43.307Z,160.47
2018-01-26T18:31:11.674Z,135.60
2018-01-26T18:33:39.934Z,134.30
2018-01-26T18:36:08.973Z,121.43
2018-01-26T18:38:37.305Z,97.87
2018-01-26T18:41:06.354Z,103.27
2018-01-26T18:43:34.591Z,130.53
2018-01-26T18:46:02.934Z,142.47
2018-01-26T18:48:31.245Z,106.73
2018-01-26T18:50:59.506Z,93.37
2018-01-26T18:53:28.954Z,73.37
2018-01-26T18:55:57.228Z,81.27
2018-01-26T18:58:25.505Z,126.73
2018-01-26T19:00:53.845Z,141.57
2018-01-26T19:03:22.139Z,124.03
2018-01-26T19:05:51.206Z,119.27
2018-01-26T19:08:19.462Z,70.20
2018-01-26T19:10:47.804Z,97.40
2018-01-26T19:13:16.033Z,104.60
2018-01-26T19:15:45.152Z,86.27
2018-01-26T19:18:13.445Z,126.77
2018-01-26T19:20:41.769Z,110.23
2018-01-26T19:23:10.900Z,86.50
2018-01-26T19:25:39.139Z,91.90
2018-01-26T19:28:07.365Z,90.37
2018-01-26T19:30:36.461Z,91.17
2018-01-26T19:33:04.729Z,75.27
2018-01-26T19:35:33.043Z,75.93
2018-01-26T19:38:01.328Z,78.37
2018-01-26T19:40:29.608Z,105.20
2018-01-26T19:42:57.937Z,106.63
2018-01-26T19:45:26.367Z,93.27
2018-01-26T19:47:54.901Z,80.27
2018-01-26T19:50:23.250Z,75.00
2018-01-26T19:52:52.261Z,98.87
2018-01-26T19:55:20.546Z,79.17
2018-01-26T19:57:48.945Z,104.13
2018-01-26T20:00:17.967Z,84.63
2018-01-26T20:02:46.180Z,89.43
2018-01-26T20:05:38.096Z,115.30
2018-01-26T20:08:30.686Z,112.37
2018-01-26T20:10:58.972Z,91.23
2018-01-26T20:13:27.978Z,84.27
2018-01-26T20:16:03.681Z,99.90
2018-01-26T20:18:32.417Z,100.20
2018-01-26T20:21:01.532Z,102.27
2018-01-26T20:23:29.836Z,95.53
2018-01-26T20:25:58.207Z,92.70
2018-01-26T20:28:26.476Z,124.30
2018-01-26T20:30:54.846Z,132.00
2018-01-26T20:33:23.092Z,81.00
2018-01-26T20:35:51.569Z,88.80
2018-01-26T20:38:19.903Z,105.80
2018-01-26T20:40:48.177Z,96.20
2018-01-26T20:43:16.439Z,88.73
2018-01-26T20:45:44.745Z,89.83
2018-01-26T20:48:13.041Z,120.03
2018-01-26T20:50:41.262Z,98.23
2018-01-26T20:53:09.554Z,81.97
2018-01-26T20:55:37.831Z,91.93
2018-01-26T20:58:06.123Z,87.73
2018-01-26T21:00:34.414Z,114.60
2018-01-26T21:03:02.794Z,97.67
2018-01-26T21:05:31.074Z,80.60
2018-01-26T21:08:08.793Z,80.00
2018-01-26T21:10:37.264Z,81.73
2018-01-26T21:13:05.543Z,77.57
2018-01-26T21:15:33.814Z,81.97
2018-01-26T21:18:02.578Z,115.60
2018-01-26T21:20:30.905Z,86.50
2018-01-26T21:22:59.920Z,87.13
2018-01-26T21:25:28.160Z,84.20
2018-01-26T21:27:56.422Z,87.73
2018-01-26T21:30:24.686Z,100.13
2018-01-26T21:32:52.921Z,93.60
2018-01-26T21:35:21.204Z,90.87
2018-01-26T21:37:49.502Z,93.63
2018-01-26T21:40:17.846Z,113.83
2018-01-26T21:42:46.113Z,97.70
2018-01-26T21:45:14.394Z,111.83
2018-01-26T21:47:42.673Z,109.40
2018-01-26T21:50:10.941Z,109.30
2018-01-26T21:52:39.260Z,101.13
2018-01-26T21:55:07.514Z,99.10
2018-01-26T21:57:35.797Z,104.00
2018-01-26T22:00:04.042Z,96.60
2018-01-26T22:02:32.277Z,95.37
2018-01-26T22:05:06.129Z,97.70
2018-01-26T22:07:40.177Z,91.70
2018-01-26T22:10:09.233Z,89.40
2018-01-26T22:12:37.476Z,89.13
2018-01-26T22:15:05.713Z,94.53
2018-01-26T22:17:34.004Z,90.77
2018-01-26T22:20:02.331Z,75.63
2018-01-26T22:22:31.330Z,86.13
2018-01-26T22:24:59.646Z,84.80
2018-01-26T22:27:27.883Z,75.20
2018-01-26T22:29:56.118Z,81.33
2018-01-26T22:32:25.167Z,90.93
2018-01-26T22:34:53.387Z,88.23
2018-01-26T22:37:21.629Z,74.80
2018-01-26T22:39:50.846Z,81.77
2018-01-26T22:42:19.088Z,91.13
2018-01-26T22:44:47.333Z,73.77
2018-01-26T22:47:16.378Z,73.53
2018-01-26T22:49:44.628Z,66.37
2018-01-26T22:52:12.903Z,82.40
2018-01-26T22:54:41.165Z,89.37
2018-01-26T22:57:09.410Z,80.97
2018-01-26T22:59:37.633Z,86.27
2018-01-26T23:02:05.924Z,94.63
2018-01-26T23:04:34.190Z,79.27
2018-01-26T23:07:02.454Z,79.03
2018-01-26T23:09:30.766Z,76.53
2018-01-26T23:11:59.002Z,83.17
2018-01-26T23:14:27.231Z,94.47
2018-01-26T23:16:55.510Z,78.27
2018-01-26T23:19:23.757Z,84.20
2018-01-26T23:21:51.980Z,72.00
2018-01-26T23:24:21.027Z,88.50
2018-01-26T23:26:49.311Z,75.70
2018-01-26T23:29:17.557Z,64.60
2018-01-26T23:31:45.840Z,74.07
2018-01-26T23:34:14.082Z,73.57
2018-01-26T23:36:43.073Z,72.30
2018-01-26T23:39:12.175Z,76.50
2018-01-26T23:41:40.410Z,60.80
2018-01-26T23:44:08.659Z,75.90
2018-01-26T23:46:36.942Z,71.03
2018-01-26T23:49:05.331Z,70.13
2018-01-26T23:51:33.589Z,53.70
2018-01-26T23:54:01.872Z,74.47
2018-01-26T23:56:30.104Z,78.47
2018-01-26T23:58:59.102Z,78.77
